createdAt,value
2023-03-15T00:00:00.420Z,973.6
2023-03-15T00:10:00.453Z,973.7
2023-03-15T00:20:00.421Z,973.8
2023-03-15T00:30:00.423Z,973.9
2023-03-15T00:40:00.410Z,974.4
2023-03-15T00:50:00.390Z,974.3
2023-03-15T01:00:00.398Z,974.2
2023-03-15T01:10:00.420Z,974.2
2023-03-15T01:20:00.392Z,974.2
2023-03-15T01:30:00.410Z,974.0
2023-03-15T01:40:00.419Z,973.9
2023-03-15T01:50:00.418Z,973.9
2023-03-15T02:00:00.411Z,974.1
2023-03-15T02:10:00.407Z,974.1
2023-03-15T02:20:00.399Z,974.0
2023-03-15T02:30:00.433Z,974.2
2023-03-15T02:40:00.399Z,974.4
2023-03-15T02:50:00.453Z,974.5
2023-03-15T03:00:00.452Z,974.6
2023-03-15T03:10:00.422Z,974.5
2023-03-15T03:20:00.558Z,974.5
2023-03-15T03:30:00.402Z,974.5
2023-03-15T03:40:00.419Z,974.4
2023-03-15T03:50:00.426Z,974.4
2023-03-15T04:00:00.429Z,974.3
2023-03-15T04:10:00.442Z,974.5
2023-03-15T04:20:00.419Z,974.5
2023-03-15T04:30:00.402Z,974.7
2023-03-15T04:40:00.438Z,974.9
2023-03-15T04:50:00.435Z,975.1
2023-03-15T05:00:00.517Z,975.3
2023-03-15T05:10:00.421Z,975.4
2023-03-15T05:20:00.418Z,975.4
2023-03-15T05:30:00.411Z,975.5
2023-03-15T05:40:00.410Z,975.1
2023-03-15T05:50:00.423Z,974.9
2023-03-15T06:00:00.420Z,975.0
2023-03-15T06:10:00.438Z,974.9
2023-03-15T06:20:00.508Z,975.5
2023-03-15T06:30:00.421Z,975.3
2023-03-15T06:40:00.407Z,975.4
2023-03-15T06:50:00.433Z,975.5
2023-03-15T07:00:00.425Z,975.7
2023-03-15T07:10:00.404Z,975.5
2023-03-15T07:20:00.480Z,975.7
2023-03-15T07:30:00.433Z,975.9
2023-03-15T07:40:00.424Z,976.3
2023-03-15T07:50:00.450Z,976.5
2023-03-15T08:00:00.428Z,976.6
2023-03-15T08:10:00.422Z,976.6
2023-03-15T08:20:00.441Z,976.8
2023-03-15T08:30:00.441Z,976.9
2023-03-15T08:40:00.453Z,976.9
2023-03-15T08:50:00.438Z,977.1
2023-03-15T09:00:00.392Z,977.3
2023-03-15T09:10:00.421Z,977.6
2023-03-15T09:20:00.428Z,977.9
2023-03-15T09:30:00.414Z,977.9
2023-03-15T09:40:00.416Z,978.2
2023-03-15T09:50:00.413Z,978.4
2023-03-15T10:00:00.428Z,978.4
2023-03-15T10:10:00.431Z,978.5
2023-03-15T10:20:00.414Z,978.6
2023-03-15T10:30:00.434Z,978.4
2023-03-15T10:40:00.443Z,978.5
2023-03-15T10:50:00.420Z,978.7
2023-03-15T11:00:00.508Z,978.7
2023-03-15T11:10:00.432Z,978.7
2023-03-15T11:20:00.428Z,979.0
2023-03-15T11:30:00.425Z,979.1
2023-03-15T11:40:10.469Z,979.1
2023-03-15T11:50:00.459Z,979.2
2023-03-15T12:00:00.555Z,979.2
2023-03-15T12:10:00.436Z,979.2
2023-03-15T12:20:00.422Z,979.3
2023-03-15T12:30:00.429Z,979.4
2023-03-15T12:40:00.431Z,979.4
2023-03-15T12:50:00.437Z,979.5
2023-03-15T13:00:00.392Z,979.5
2023-03-15T13:10:00.432Z,979.6
2023-03-15T13:20:00.453Z,979.8
2023-03-15T13:30:00.455Z,980.1
2023-03-15T13:40:00.438Z,980.1
2023-03-15T13:50:00.395Z,980.3
2023-03-15T14:00:00.432Z,980.4
2023-03-15T14:10:00.408Z,980.4
2023-03-15T14:20:00.533Z,980.4
2023-03-15T14:30:00.518Z,980.5
2023-03-15T14:40:00.434Z,980.7
2023-03-15T14:50:00.500Z,980.8
2023-03-15T15:00:00.418Z,980.9
2023-03-15T15:10:00.434Z,981.0
2023-03-15T15:20:00.409Z,981.3
2023-03-15T15:30:00.445Z,981.5
2023-03-15T15:40:00.398Z,981.6
2023-03-15T15:50:00.425Z,981.6
2023-03-15T16:00:00.418Z,981.8
2023-03-15T16:10:00.472Z,981.9
2023-03-15T16:20:00.473Z,982.1
2023-03-15T16:30:00.428Z,982.2
2023-03-15T16:40:00.458Z,982.5
2023-03-15T16:50:00.497Z,982.6
2023-03-15T17:00:00.447Z,982.7
2023-03-15T17:10:00.476Z,982.7
2023-03-15T17:20:00.412Z,982.8
2023-03-15T17:30:00.410Z,983.0
2023-03-15T17:40:00.424Z,983.1
2023-03-15T17:50:00.459Z,983.4
2023-03-15T18:00:00.449Z,983.4
2023-03-15T18:10:00.470Z,983.7
2023-03-15T18:20:00.495Z,983.8
2023-03-15T18:30:00.421Z,984.0
2023-03-15T18:40:00.456Z,984.2
2023-03-15T18:50:09.537Z,984.3
2023-03-15T19:00:00.402Z,984.4
2023-03-15T19:10:00.413Z,984.4
2023-03-15T19:20:00.420Z,984.5
2023-03-15T19:30:00.481Z,984.5
2023-03-15T19:40:00.394Z,984.6
2023-03-15T19:50:00.459Z,984.7
2023-03-15T20:00:00.425Z,984.8
2023-03-15T20:10:00.440Z,985.0
2023-03-15T20:20:00.413Z,985.1
2023-03-15T20:30:00.445Z,985.3
2023-03-15T20:40:00.449Z,985.3
2023-03-15T20:50:00.432Z,985.3
2023-03-15T21:00:00.465Z,985.3
2023-03-15T21:10:00.448Z,985.4
2023-03-15T21:20:00.394Z,985.4
2023-03-15T21:30:00.418Z,985.4
2023-03-15T21:40:00.389Z,985.3
2023-03-15T21:50:00.454Z,985.3
2023-03-15T22:00:00.386Z,985.3
2023-03-15T22:10:00.381Z,985.3
2023-03-15T22:20:00.404Z,985.4
2023-03-15T22:30:00.419Z,985.4
2023-03-15T22:40:00.407Z,985.4
2023-03-15T22:50:00.458Z,985.5
2023-03-15T23:00:00.401Z,985.4
2023-03-15T23:10:00.412Z,985.6
2023-03-15T23:20:00.430Z,985.6
2023-03-15T23:30:00.423Z,985.6
2023-03-15T23:40:00.422Z,985.8
2023-03-15T23:50:00.413Z,985.8
